sensor_id;sensor_type;location;lat;lon;timestamp;P1;durP1;ratioP1;P2;durP2;ratioP2
64498;SDS011;51087;55.718;21.122;2023-03-14T00:01:14;18.58;;;9.10;;
64498;SDS011;51087;55.718;21.122;2023-03-14T00:03:41;21.23;;;10.43;;
64498;SDS011;51087;55.718;21.122;2023-03-14T00:06:07;11.95;;;7.47;;
64498;SDS011;51087;55.718;21.122;2023-03-14T00:08:33;15.32;;;7.40;;
64498;SDS011;51087;55.718;21.122;2023-03-14T00:11:09;12.75;;;6.55;;
64498;SDS011;51087;55.718;21.122;2023-03-14T00:13:40;13.95;;;6.90;;
64498;SDS011;51087;55.718;21.122;2023-03-14T00:16:07;13.68;;;6.85;;
64498;SDS011;51087;55.718;21.122;2023-03-14T00:18:34;9.68;;;6.03;;
64498;SDS011;51087;55.718;21.122;2023-03-14T00:21:01;12.73;;;6.65;;
64498;SDS011;51087;55.718;21.122;2023-03-14T00:23:29;10.93;;;5.85;;
64498;SDS011;51087;55.718;21.122;2023-03-14T00:26:07;15.02;;;6.75;;
64498;SDS011;51087;55.718;21.122;2023-03-14T00:28:34;17.63;;;8.70;;
64498;SDS011;51087;55.718;21.122;2023-03-14T00:31:02;18.38;;;8.55;;
64498;SDS011;51087;55.718;21.122;2023-03-14T00:33:28;14.80;;;7.72;;
64498;SDS011;51087;55.718;21.122;2023-03-14T00:35:57;16.08;;;7.57;;
64498;SDS011;51087;55.718;21.122;2023-03-14T00:38:29;13.95;;;7.22;;
64498;SDS011;51087;55.718;21.122;2023-03-14T00:40:55;9.98;;;6.15;;
64498;SDS011;51087;55.718;21.122;2023-03-14T00:43:21;13.18;;;5.45;;
64498;SDS011;51087;55.718;21.122;2023-03-14T00:45:47;17.02;;;7.53;;
64498;SDS011;51087;55.718;21.122;2023-03-14T00:48:17;12.63;;;6.07;;
64498;SDS011;51087;55.718;21.122;2023-03-14T00:50:43;15.88;;;7.47;;
64498;SDS011;51087;55.718;21.122;2023-03-14T00:53:08;10.60;;;6.07;;
64498;SDS011;51087;55.718;21.122;2023-03-14T00:55:37;17.00;;;5.55;;
64498;SDS011;51087;55.718;21.122;2023-03-14T00:58:04;15.75;;;5.95;;
64498;SDS011;51087;55.718;21.122;2023-03-14T01:00:30;11.80;;;6.72;;
64498;SDS011;51087;55.718;21.122;2023-03-14T01:02:56;6.30;;;3.83;;
64498;SDS011;51087;55.718;21.122;2023-03-14T01:05:21;18.15;;;8.10;;
64498;SDS011;51087;55.718;21.122;2023-03-14T01:07:47;10.07;;;5.90;;
64498;SDS011;51087;55.718;21.122;2023-03-14T01:10:13;13.43;;;6.82;;
64498;SDS011;51087;55.718;21.122;2023-03-14T01:12:38;15.88;;;7.03;;
64498;SDS011;51087;55.718;21.122;2023-03-14T01:15:04;11.07;;;5.80;;
64498;SDS011;51087;55.718;21.122;2023-03-14T01:17:30;9.90;;;6.15;;
64498;SDS011;51087;55.718;21.122;2023-03-14T01:19:55;10.50;;;3.97;;
64498;SDS011;51087;55.718;21.122;2023-03-14T01:22:20;12.68;;;6.93;;
64498;SDS011;51087;55.718;21.122;2023-03-14T01:24:46;14.70;;;6.25;;
64498;SDS011;51087;55.718;21.122;2023-03-14T01:27:12;11.30;;;6.13;;
64498;SDS011;51087;55.718;21.122;2023-03-14T01:29:37;16.67;;;6.28;;
64498;SDS011;51087;55.718;21.122;2023-03-14T01:32:03;16.00;;;6.70;;
64498;SDS011;51087;55.718;21.122;2023-03-14T01:34:29;17.15;;;6.25;;
64498;SDS011;51087;55.718;21.122;2023-03-14T01:36:54;10.18;;;5.18;;
64498;SDS011;51087;55.718;21.122;2023-03-14T01:39:19;13.02;;;6.50;;
64498;SDS011;51087;55.718;21.122;2023-03-14T01:41:45;11.80;;;5.38;;
64498;SDS011;51087;55.718;21.122;2023-03-14T01:44:10;11.77;;;5.95;;
64498;SDS011;51087;55.718;21.122;2023-03-14T01:51:42;7.68;;;3.78;;
64498;SDS011;51087;55.718;21.122;2023-03-14T01:57:11;13.20;;;6.55;;
64498;SDS011;51087;55.718;21.122;2023-03-14T01:59:38;11.85;;;4.88;;
64498;SDS011;51087;55.718;21.122;2023-03-14T02:02:07;10.05;;;5.03;;
64498;SDS011;51087;55.718;21.122;2023-03-14T02:04:35;6.22;;;3.92;;
64498;SDS011;51087;55.718;21.122;2023-03-14T02:07:04;10.25;;;4.95;;
64498;SDS011;51087;55.718;21.122;2023-03-14T02:09:31;8.65;;;4.20;;
64498;SDS011;51087;55.718;21.122;2023-03-14T02:11:56;10.73;;;5.93;;
64498;SDS011;51087;55.718;21.122;2023-03-14T02:14:26;8.70;;;5.00;;
64498;SDS011;51087;55.718;21.122;2023-03-14T02:16:56;9.05;;;5.07;;
64498;SDS011;51087;55.718;21.122;2023-03-14T02:19:26;12.27;;;7.13;;
64498;SDS011;51087;55.718;21.122;2023-03-14T02:22:11;9.55;;;4.75;;
64498;SDS011;51087;55.718;21.122;2023-03-14T02:24:57;10.70;;;5.45;;
64498;SDS011;51087;55.718;21.122;2023-03-14T02:27:24;8.98;;;4.72;;
64498;SDS011;51087;55.718;21.122;2023-03-14T02:29:58;13.55;;;5.10;;
64498;SDS011;51087;55.718;21.122;2023-03-14T02:32:27;4.78;;;2.88;;
64498;SDS011;51087;55.718;21.122;2023-03-14T02:34:57;6.45;;;3.75;;
64498;SDS011;51087;55.718;21.122;2023-03-14T02:37:24;10.13;;;5.13;;
64498;SDS011;51087;55.718;21.122;2023-03-14T02:39:55;15.10;;;5.80;;
64498;SDS011;51087;55.718;21.122;2023-03-14T02:42:21;14.50;;;7.20;;
64498;SDS011;51087;55.718;21.122;2023-03-14T02:47:32;6.93;;;3.97;;
64498;SDS011;51087;55.718;21.122;2023-03-14T02:50:02;7.95;;;4.18;;
64498;SDS011;51087;55.718;21.122;2023-03-14T02:52:29;11.52;;;4.47;;
64498;SDS011;51087;55.718;21.122;2023-03-14T02:54:55;12.45;;;4.90;;
64498;SDS011;51087;55.718;21.122;2023-03-14T02:57:20;12.50;;;5.45;;
64498;SDS011;51087;55.718;21.122;2023-03-14T02:59:46;13.80;;;5.68;;
64498;SDS011;51087;55.718;21.122;2023-03-14T03:02:11;7.88;;;4.28;;
64498;SDS011;51087;55.718;21.122;2023-03-14T03:04:36;13.15;;;5.68;;
64498;SDS011;51087;55.718;21.122;2023-03-14T03:07:02;14.90;;;5.50;;
64498;SDS011;51087;55.718;21.122;2023-03-14T03:09:27;12.68;;;6.47;;
64498;SDS011;51087;55.718;21.122;2023-03-14T03:11:53;13.05;;;4.35;;
64498;SDS011;51087;55.718;21.122;2023-03-14T03:14:18;9.80;;;5.50;;
64498;SDS011;51087;55.718;21.122;2023-03-14T03:16:43;13.45;;;5.63;;
64498;SDS011;51087;55.718;21.122;2023-03-14T03:19:09;10.95;;;4.85;;
64498;SDS011;51087;55.718;21.122;2023-03-14T03:21:34;8.75;;;5.15;;
64498;SDS011;51087;55.718;21.122;2023-03-14T03:24:00;11.43;;;5.38;;
64498;SDS011;51087;55.718;21.122;2023-03-14T03:26:25;8.18;;;4.32;;
64498;SDS011;51087;55.718;21.122;2023-03-14T03:28:51;10.68;;;5.40;;
64498;SDS011;51087;55.718;21.122;2023-03-14T03:31:18;14.55;;;5.78;;
64498;SDS011;51087;55.718;21.122;2023-03-14T03:33:43;17.70;;;5.45;;
64498;SDS011;51087;55.718;21.122;2023-03-14T03:36:09;7.90;;;4.07;;
64498;SDS011;51087;55.718;21.122;2023-03-14T03:38:34;12.88;;;5.57;;
64498;SDS011;51087;55.718;21.122;2023-03-14T03:41:07;13.38;;;5.80;;
64498;SDS011;51087;55.718;21.122;2023-03-14T03:43:35;9.70;;;4.93;;
64498;SDS011;51087;55.718;21.122;2023-03-14T03:46:04;11.68;;;4.78;;
64498;SDS011;51087;55.718;21.122;2023-03-14T03:48:30;18.50;;;6.47;;
64498;SDS011;51087;55.718;21.122;2023-03-14T03:50:55;11.23;;;4.63;;
64498;SDS011;51087;55.718;21.122;2023-03-14T03:53:21;13.52;;;6.35;;
64498;SDS011;51087;55.718;21.122;2023-03-14T03:55:46;17.08;;;6.38;;
64498;SDS011;51087;55.718;21.122;2023-03-14T03:58:12;11.98;;;5.45;;
64498;SDS011;51087;55.718;21.122;2023-03-14T04:00:37;11.80;;;5.00;;
64498;SDS011;51087;55.718;21.122;2023-03-14T04:03:04;14.18;;;6.47;;
64498;SDS011;51087;55.718;21.122;2023-03-14T04:05:29;11.35;;;5.78;;
64498;SDS011;51087;55.718;21.122;2023-03-14T04:07:54;13.18;;;6.90;;
64498;SDS011;51087;55.718;21.122;2023-03-14T04:10:20;14.55;;;7.38;;
64498;SDS011;51087;55.718;21.122;2023-03-14T04:12:45;11.20;;;6.40;;
64498;SDS011;51087;55.718;21.122;2023-03-14T04:15:11;14.38;;;6.60;;
64498;SDS011;51087;55.718;21.122;2023-03-14T04:17:36;12.80;;;7.22;;
64498;SDS011;51087;55.718;21.122;2023-03-14T04:20:02;20.65;;;7.50;;
64498;SDS011;51087;55.718;21.122;2023-03-14T04:22:29;12.15;;;6.72;;
64498;SDS011;51087;55.718;21.122;2023-03-14T04:24:54;16.02;;;7.13;;
64498;SDS011;51087;55.718;21.122;2023-03-14T04:27:19;15.35;;;6.30;;
64498;SDS011;51087;55.718;21.122;2023-03-14T04:29:45;12.98;;;7.38;;
64498;SDS011;51087;55.718;21.122;2023-03-14T04:32:10;17.10;;;7.50;;
64498;SDS011;51087;55.718;21.122;2023-03-14T04:34:36;14.88;;;6.78;;
64498;SDS011;51087;55.718;21.122;2023-03-14T04:37:01;13.32;;;7.45;;
64498;SDS011;51087;55.718;21.122;2023-03-14T04:39:27;16.95;;;7.82;;
64498;SDS011;51087;55.718;21.122;2023-03-14T04:41:52;12.18;;;6.90;;
64498;SDS011;51087;55.718;21.122;2023-03-14T04:44:18;10.23;;;5.97;;
64498;SDS011;51087;55.718;21.122;2023-03-14T04:46:43;10.25;;;6.10;;
64498;SDS011;51087;55.718;21.122;2023-03-14T04:49:09;15.27;;;7.20;;
64498;SDS011;51087;55.718;21.122;2023-03-14T04:51:34;12.88;;;6.97;;
64498;SDS011;51087;55.718;21.122;2023-03-14T04:53:59;11.48;;;5.40;;
64498;SDS011;51087;55.718;21.122;2023-03-14T04:56:25;14.70;;;6.78;;
64498;SDS011;51087;55.718;21.122;2023-03-14T04:58:52;15.90;;;6.95;;
64498;SDS011;51087;55.718;21.122;2023-03-14T05:01:18;14.68;;;6.72;;
64498;SDS011;51087;55.718;21.122;2023-03-14T05:03:43;20.30;;;7.63;;
64498;SDS011;51087;55.718;21.122;2023-03-14T05:06:08;11.85;;;5.93;;
64498;SDS011;51087;55.718;21.122;2023-03-14T05:08:34;10.90;;;5.72;;
64498;SDS011;51087;55.718;21.122;2023-03-14T05:10:59;17.35;;;7.07;;
64498;SDS011;51087;55.718;21.122;2023-03-14T05:13:25;18.02;;;7.32;;
64498;SDS011;51087;55.718;21.122;2023-03-14T05:15:51;16.50;;;7.13;;
64498;SDS011;51087;55.718;21.122;2023-03-14T05:18:17;10.35;;;6.53;;
64498;SDS011;51087;55.718;21.122;2023-03-14T05:20:42;10.02;;;4.93;;
64498;SDS011;51087;55.718;21.122;2023-03-14T05:23:08;8.45;;;5.35;;
64498;SDS011;51087;55.718;21.122;2023-03-14T05:25:34;13.35;;;7.57;;
64498;SDS011;51087;55.718;21.122;2023-03-14T05:27:59;19.30;;;6.28;;
64498;SDS011;51087;55.718;21.122;2023-03-14T05:30:25;14.93;;;7.38;;
64498;SDS011;51087;55.718;21.122;2023-03-14T05:32:50;13.90;;;6.88;;
64498;SDS011;51087;55.718;21.122;2023-03-14T05:35:16;13.38;;;6.57;;
64498;SDS011;51087;55.718;21.122;2023-03-14T05:37:41;15.45;;;6.63;;
64498;SDS011;51087;55.718;21.122;2023-03-14T05:40:07;15.95;;;7.78;;
64498;SDS011;51087;55.718;21.122;2023-03-14T05:42:33;20.30;;;8.73;;
64498;SDS011;51087;55.718;21.122;2023-03-14T05:44:59;22.40;;;7.65;;
64498;SDS011;51087;55.718;21.122;2023-03-14T05:47:24;18.02;;;7.43;;
64498;SDS011;51087;55.718;21.122;2023-03-14T05:49:50;15.43;;;6.25;;
64498;SDS011;51087;55.718;21.122;2023-03-14T05:52:15;16.38;;;6.57;;
64498;SDS011;51087;55.718;21.122;2023-03-14T05:54:41;10.57;;;5.90;;
64498;SDS011;51087;55.718;21.122;2023-03-14T05:57:06;16.17;;;6.88;;
64498;SDS011;51087;55.718;21.122;2023-03-14T05:59:32;17.23;;;6.88;;
64498;SDS011;51087;55.718;21.122;2023-03-14T06:01:57;14.68;;;6.32;;
64498;SDS011;51087;55.718;21.122;2023-03-14T06:04:23;13.57;;;6.68;;
64498;SDS011;51087;55.718;21.122;2023-03-14T06:06:49;13.20;;;7.10;;
64498;SDS011;51087;55.718;21.122;2023-03-14T06:09:14;13.70;;;7.38;;
64498;SDS011;51087;55.718;21.122;2023-03-14T06:11:40;15.02;;;7.43;;
64498;SDS011;51087;55.718;21.122;2023-03-14T06:14:05;16.60;;;7.38;;
64498;SDS011;51087;55.718;21.122;2023-03-14T06:16:31;13.52;;;6.65;;
64498;SDS011;51087;55.718;21.122;2023-03-14T06:18:57;15.57;;;7.40;;
64498;SDS011;51087;55.718;21.122;2023-03-14T06:21:22;12.10;;;6.30;;
64498;SDS011;51087;55.718;21.122;2023-03-14T06:23:48;13.20;;;7.18;;
64498;SDS011;51087;55.718;21.122;2023-03-14T06:26:13;14.63;;;6.68;;
64498;SDS011;51087;55.718;21.122;2023-03-14T06:28:39;12.27;;;6.53;;
64498;SDS011;51087;55.718;21.122;2023-03-14T06:31:04;13.20;;;6.30;;
64498;SDS011;51087;55.718;21.122;2023-03-14T06:33:30;12.45;;;6.20;;
64498;SDS011;51087;55.718;21.122;2023-03-14T06:35:55;12.20;;;6.75;;
64498;SDS011;51087;55.718;21.122;2023-03-14T06:38:21;9.82;;;5.35;;
64498;SDS011;51087;55.718;21.122;2023-03-14T06:40:46;16.05;;;7.00;;
64498;SDS011;51087;55.718;21.122;2023-03-14T06:43:12;11.35;;;6.20;;
64498;SDS011;51087;55.718;21.122;2023-03-14T06:45:37;20.67;;;6.38;;
64498;SDS011;51087;55.718;21.122;2023-03-14T06:48:03;12.90;;;6.65;;
64498;SDS011;51087;55.718;21.122;2023-03-14T06:50:29;20.85;;;6.78;;
64498;SDS011;51087;55.718;21.122;2023-03-14T06:52:54;12.60;;;5.60;;
64498;SDS011;51087;55.718;21.122;2023-03-14T06:55:19;14.68;;;7.50;;
64498;SDS011;51087;55.718;21.122;2023-03-14T06:57:45;14.98;;;8.60;;
64498;SDS011;51087;55.718;21.122;2023-03-14T07:00:11;14.82;;;8.38;;
64498;SDS011;51087;55.718;21.122;2023-03-14T07:02:38;18.08;;;8.52;;
64498;SDS011;51087;55.718;21.122;2023-03-14T07:05:03;11.90;;;7.53;;
64498;SDS011;51087;55.718;21.122;2023-03-14T07:07:29;21.23;;;9.20;;
64498;SDS011;51087;55.718;21.122;2023-03-14T07:09:55;17.27;;;8.10;;
64498;SDS011;51087;55.718;21.122;2023-03-14T07:12:20;17.60;;;8.05;;
64498;SDS011;51087;55.718;21.122;2023-03-14T07:14:46;14.27;;;8.30;;
64498;SDS011;51087;55.718;21.122;2023-03-14T07:17:11;14.50;;;7.07;;
64498;SDS011;51087;55.718;21.122;2023-03-14T07:19:36;17.58;;;8.23;;
64498;SDS011;51087;55.718;21.122;2023-03-14T07:22:03;12.18;;;7.30;;
64498;SDS011;51087;55.718;21.122;2023-03-14T07:24:29;17.30;;;7.75;;
64498;SDS011;51087;55.718;21.122;2023-03-14T07:26:54;19.52;;;8.23;;
64498;SDS011;51087;55.718;21.122;2023-03-14T07:29:20;12.73;;;6.90;;
64498;SDS011;51087;55.718;21.122;2023-03-14T07:31:45;14.82;;;7.28;;
64498;SDS011;51087;55.718;21.122;2023-03-14T07:34:11;12.93;;;6.90;;
64498;SDS011;51087;55.718;21.122;2023-03-14T07:36:36;13.40;;;6.85;;
64498;SDS011;51087;55.718;21.122;2023-03-14T07:39:02;11.15;;;5.72;;
64498;SDS011;51087;55.718;21.122;2023-03-14T07:41:27;13.32;;;6.93;;
64498;SDS011;51087;55.718;21.122;2023-03-14T07:43:52;10.05;;;5.72;;
64498;SDS011;51087;55.718;21.122;2023-03-14T07:46:18;11.80;;;5.70;;
64498;SDS011;51087;55.718;21.122;2023-03-14T07:48:44;8.60;;;4.45;;
64498;SDS011;51087;55.718;21.122;2023-03-14T07:51:09;12.57;;;5.72;;
64498;SDS011;51087;55.718;21.122;2023-03-14T07:53:35;10.32;;;5.90;;
64498;SDS011;51087;55.718;21.122;2023-03-14T07:56:00;10.07;;;5.63;;
64498;SDS011;51087;55.718;21.122;2023-03-14T07:58:25;12.75;;;6.40;;
64498;SDS011;51087;55.718;21.122;2023-03-14T08:00:51;10.15;;;5.35;;
64498;SDS011;51087;55.718;21.122;2023-03-14T08:03:17;10.35;;;5.07;;
64498;SDS011;51087;55.718;21.122;2023-03-14T08:05:43;15.02;;;5.82;;
64498;SDS011;51087;55.718;21.122;2023-03-14T08:08:09;9.93;;;5.00;;
64498;SDS011;51087;55.718;21.122;2023-03-14T08:10:34;7.88;;;4.20;;
64498;SDS011;51087;55.718;21.122;2023-03-14T08:13:00;12.38;;;5.60;;
64498;SDS011;51087;55.718;21.122;2023-03-14T08:15:26;8.75;;;5.20;;
64498;SDS011;51087;55.718;21.122;2023-03-14T08:17:53;10.65;;;5.07;;
64498;SDS011;51087;55.718;21.122;2023-03-14T08:20:19;14.35;;;5.43;;
64498;SDS011;51087;55.718;21.122;2023-03-14T08:22:46;12.23;;;5.47;;
64498;SDS011;51087;55.718;21.122;2023-03-14T08:25:12;8.48;;;5.15;;
64498;SDS011;51087;55.718;21.122;2023-03-14T08:27:38;10.27;;;5.50;;
64498;SDS011;51087;55.718;21.122;2023-03-14T08:30:04;14.50;;;5.05;;
64498;SDS011;51087;55.718;21.122;2023-03-14T08:32:31;8.23;;;4.80;;
64498;SDS011;51087;55.718;21.122;2023-03-14T08:34:57;11.95;;;5.40;;
64498;SDS011;51087;55.718;21.122;2023-03-14T08:37:22;9.98;;;5.05;;
64498;SDS011;51087;55.718;21.122;2023-03-14T08:39:49;14.00;;;4.50;;
64498;SDS011;51087;55.718;21.122;2023-03-14T08:42:14;10.80;;;5.20;;
64498;SDS011;51087;55.718;21.122;2023-03-14T08:44:40;12.10;;;5.20;;
64498;SDS011;51087;55.718;21.122;2023-03-14T08:47:05;11.38;;;4.93;;
64498;SDS011;51087;55.718;21.122;2023-03-14T08:49:31;9.60;;;4.97;;
64498;SDS011;51087;55.718;21.122;2023-03-14T08:51:56;9.40;;;4.97;;
64498;SDS011;51087;55.718;21.122;2023-03-14T08:54:21;13.73;;;5.35;;
64498;SDS011;51087;55.718;21.122;2023-03-14T08:56:47;9.77;;;4.60;;
64498;SDS011;51087;55.718;21.122;2023-03-14T08:59:12;9.00;;;4.68;;
64498;SDS011;51087;55.718;21.122;2023-03-14T09:01:37;10.20;;;5.55;;
64498;SDS011;51087;55.718;21.122;2023-03-14T09:04:03;8.07;;;4.88;;
64498;SDS011;51087;55.718;21.122;2023-03-14T09:06:29;11.23;;;5.03;;
64498;SDS011;51087;55.718;21.122;2023-03-14T09:08:54;11.13;;;4.90;;
64498;SDS011;51087;55.718;21.122;2023-03-14T09:11:19;7.95;;;4.60;;
64498;SDS011;51087;55.718;21.122;2023-03-14T09:13:45;12.77;;;5.47;;
64498;SDS011;51087;55.718;21.122;2023-03-14T09:16:10;11.73;;;5.30;;
64498;SDS011;51087;55.718;21.122;2023-03-14T09:18:36;11.25;;;5.07;;
64498;SDS011;51087;55.718;21.122;2023-03-14T09:21:01;9.30;;;5.03;;
64498;SDS011;51087;55.718;21.122;2023-03-14T09:23:27;11.45;;;4.95;;
64498;SDS011;51087;55.718;21.122;2023-03-14T09:25:56;8.45;;;5.03;;
64498;SDS011;51087;55.718;21.122;2023-03-14T09:28:22;9.20;;;4.50;;
64498;SDS011;51087;55.718;21.122;2023-03-14T09:30:49;8.90;;;4.95;;
64498;SDS011;51087;55.718;21.122;2023-03-14T09:33:15;12.15;;;4.82;;
64498;SDS011;51087;55.718;21.122;2023-03-14T09:35:41;11.38;;;5.28;;
64498;SDS011;51087;55.718;21.122;2023-03-14T09:38:06;9.52;;;4.63;;
64498;SDS011;51087;55.718;21.122;2023-03-14T09:40:34;7.32;;;4.18;;
64498;SDS011;51087;55.718;21.122;2023-03-14T09:43:00;9.95;;;4.28;;
64498;SDS011;51087;55.718;21.122;2023-03-14T09:45:28;9.63;;;5.55;;
64498;SDS011;51087;55.718;21.122;2023-03-14T09:47:57;9.77;;;4.85;;
64498;SDS011;51087;55.718;21.122;2023-03-14T09:50:24;11.13;;;5.00;;
64498;SDS011;51087;55.718;21.122;2023-03-14T09:52:59;12.27;;;5.65;;
64498;SDS011;51087;55.718;21.122;2023-03-14T09:55:28;9.60;;;4.95;;
64498;SDS011;51087;55.718;21.122;2023-03-14T09:57:58;9.23;;;4.75;;
64498;SDS011;51087;55.718;21.122;2023-03-14T10:00:28;9.50;;;3.97;;
64498;SDS011;51087;55.718;21.122;2023-03-14T10:05:42;11.65;;;4.82;;
64498;SDS011;51087;55.718;21.122;2023-03-14T10:08:11;8.70;;;4.60;;
64498;SDS011;51087;55.718;21.122;2023-03-14T10:10:38;12.73;;;5.80;;
64498;SDS011;51087;55.718;21.122;2023-03-14T10:13:14;7.10;;;3.95;;
64498;SDS011;51087;55.718;21.122;2023-03-14T10:15:41;9.55;;;5.45;;
64498;SDS011;51087;55.718;21.122;2023-03-14T10:18:13;10.95;;;4.55;;
64498;SDS011;51087;55.718;21.122;2023-03-14T10:20:43;9.43;;;5.30;;
64498;SDS011;51087;55.718;21.122;2023-03-14T10:25:38;10.10;;;5.35;;
64498;SDS011;51087;55.718;21.122;2023-03-14T10:28:11;7.50;;;4.70;;
64498;SDS011;51087;55.718;21.122;2023-03-14T10:30:49;9.23;;;4.80;;
64498;SDS011;51087;55.718;21.122;2023-03-14T10:35:42;11.77;;;5.63;;
64498;SDS011;51087;55.718;21.122;2023-03-14T10:38:12;7.55;;;4.20;;
64498;SDS011;51087;55.718;21.122;2023-03-14T10:40:40;12.07;;;5.78;;
64498;SDS011;51087;55.718;21.122;2023-03-14T10:43:13;14.48;;;6.22;;
64498;SDS011;51087;55.718;21.122;2023-03-14T10:50:49;11.05;;;5.70;;
64498;SDS011;51087;55.718;21.122;2023-03-14T10:53:20;12.07;;;6.00;;
64498;SDS011;51087;55.718;21.122;2023-03-14T10:55:46;12.13;;;5.88;;
64498;SDS011;51087;55.718;21.122;2023-03-14T10:58:45;8.40;;;5.00;;
64498;SDS011;51087;55.718;21.122;2023-03-14T11:01:12;12.25;;;5.03;;
64498;SDS011;51087;55.718;21.122;2023-03-14T11:03:41;10.63;;;5.35;;
64498;SDS011;51087;55.718;21.122;2023-03-14T11:11:32;9.93;;;5.45;;
64498;SDS011;51087;55.718;21.122;2023-03-14T11:14:18;11.20;;;5.75;;
64498;SDS011;51087;55.718;21.122;2023-03-14T11:22:46;11.23;;;6.35;;
64498;SDS011;51087;55.718;21.122;2023-03-14T11:30:52;14.50;;;5.43;;
64498;SDS011;51087;55.718;21.122;2023-03-14T11:33:26;10.65;;;5.32;;
64498;SDS011;51087;55.718;21.122;2023-03-14T11:38:55;12.15;;;6.20;;
64498;SDS011;51087;55.718;21.122;2023-03-14T11:41:24;11.65;;;6.53;;
64498;SDS011;51087;55.718;21.122;2023-03-14T11:43:56;12.02;;;6.43;;
64498;SDS011;51087;55.718;21.122;2023-03-14T11:51:25;10.60;;;6.45;;
64498;SDS011;51087;55.718;21.122;2023-03-14T11:54:14;11.35;;;5.85;;
64498;SDS011;51087;55.718;21.122;2023-03-14T11:56:45;10.10;;;5.72;;
64498;SDS011;51087;55.718;21.122;2023-03-14T11:59:16;11.63;;;6.32;;
64498;SDS011;51087;55.718;21.122;2023-03-14T12:07:39;11.88;;;6.25;;
64498;SDS011;51087;55.718;21.122;2023-03-14T12:10:29;18.00;;;7.63;;
64498;SDS011;51087;55.718;21.122;2023-03-14T12:12:54;12.15;;;7.00;;
64498;SDS011;51087;55.718;21.122;2023-03-14T12:15:21;11.60;;;6.57;;
64498;SDS011;51087;55.718;21.122;2023-03-14T12:17:52;12.82;;;6.30;;
64498;SDS011;51087;55.718;21.122;2023-03-14T12:20:23;11.13;;;6.32;;
64498;SDS011;51087;55.718;21.122;2023-03-14T12:22:54;12.50;;;7.55;;
64498;SDS011;51087;55.718;21.122;2023-03-14T12:25:22;12.95;;;6.95;;
64498;SDS011;51087;55.718;21.122;2023-03-14T12:30:26;12.60;;;7.22;;
64498;SDS011;51087;55.718;21.122;2023-03-14T12:35:43;16.80;;;6.80;;
64498;SDS011;51087;55.718;21.122;2023-03-14T12:43:47;16.27;;;7.32;;
64498;SDS011;51087;55.718;21.122;2023-03-14T12:46:20;9.80;;;6.05;;
64498;SDS011;51087;55.718;21.122;2023-03-14T12:48:48;11.05;;;6.93;;
64498;SDS011;51087;55.718;21.122;2023-03-14T12:51:34;10.93;;;6.80;;
64498;SDS011;51087;55.718;21.122;2023-03-14T13:07:11;13.13;;;6.22;;
64498;SDS011;51087;55.718;21.122;2023-03-14T13:12:23;16.73;;;7.30;;
64498;SDS011;51087;55.718;21.122;2023-03-14T13:14:52;17.35;;;6.68;;
64498;SDS011;51087;55.718;21.122;2023-03-14T13:17:22;15.48;;;6.68;;
64498;SDS011;51087;55.718;21.122;2023-03-14T13:19:55;9.90;;;4.85;;
64498;SDS011;51087;55.718;21.122;2023-03-14T13:22:30;15.32;;;7.28;;
64498;SDS011;51087;55.718;21.122;2023-03-14T13:25:04;14.95;;;7.22;;
64498;SDS011;51087;55.718;21.122;2023-03-14T13:27:32;14.73;;;7.57;;
64498;SDS011;51087;55.718;21.122;2023-03-14T13:29:59;14.32;;;6.75;;
64498;SDS011;51087;55.718;21.122;2023-03-14T13:32:50;10.25;;;6.07;;
64498;SDS011;51087;55.718;21.122;2023-03-14T13:35:19;14.25;;;6.57;;
64498;SDS011;51087;55.718;21.122;2023-03-14T13:37:47;16.30;;;7.15;;
64498;SDS011;51087;55.718;21.122;2023-03-14T13:40:23;13.35;;;7.50;;
64498;SDS011;51087;55.718;21.122;2023-03-14T13:42:59;12.85;;;6.35;;
64498;SDS011;51087;55.718;21.122;2023-03-14T13:45:29;12.38;;;7.05;;
64498;SDS011;51087;55.718;21.122;2023-03-14T13:47:55;13.15;;;6.70;;
64498;SDS011;51087;55.718;21.122;2023-03-14T13:50:20;14.88;;;7.25;;
64498;SDS011;51087;55.718;21.122;2023-03-14T13:52:46;14.48;;;7.15;;
64498;SDS011;51087;55.718;21.122;2023-03-14T13:55:16;13.90;;;7.18;;
64498;SDS011;51087;55.718;21.122;2023-03-14T13:57:47;15.57;;;7.00;;
64498;SDS011;51087;55.718;21.122;2023-03-14T14:00:18;17.63;;;7.93;;
64498;SDS011;51087;55.718;21.122;2023-03-14T14:02:45;12.05;;;7.22;;
64498;SDS011;51087;55.718;21.122;2023-03-14T14:05:11;18.00;;;7.43;;
64498;SDS011;51087;55.718;21.122;2023-03-14T14:07:37;13.35;;;6.70;;
64498;SDS011;51087;55.718;21.122;2023-03-14T14:10:04;14.52;;;6.63;;
64498;SDS011;51087;55.718;21.122;2023-03-14T14:12:37;12.55;;;7.18;;
64498;SDS011;51087;55.718;21.122;2023-03-14T14:15:13;12.80;;;7.38;;
64498;SDS011;51087;55.718;21.122;2023-03-14T14:17:45;13.93;;;7.40;;
64498;SDS011;51087;55.718;21.122;2023-03-14T14:22:56;15.13;;;7.10;;
64498;SDS011;51087;55.718;21.122;2023-03-14T14:25:22;12.98;;;7.03;;
64498;SDS011;51087;55.718;21.122;2023-03-14T14:27:49;16.38;;;7.50;;
64498;SDS011;51087;55.718;21.122;2023-03-14T14:32:44;11.50;;;6.30;;
64498;SDS011;51087;55.718;21.122;2023-03-14T14:37:56;12.20;;;7.20;;
64498;SDS011;51087;55.718;21.122;2023-03-14T14:40:23;15.85;;;7.15;;
64498;SDS011;51087;55.718;21.122;2023-03-14T14:42:53;14.85;;;6.65;;
64498;SDS011;51087;55.718;21.122;2023-03-14T14:45:26;15.27;;;6.80;;
64498;SDS011;51087;55.718;21.122;2023-03-14T14:55:55;10.55;;;6.03;;
64498;SDS011;51087;55.718;21.122;2023-03-14T15:01:30;11.95;;;5.70;;
64498;SDS011;51087;55.718;21.122;2023-03-14T15:03:41;15.75;;;6.28;;
64498;SDS011;51087;55.718;21.122;2023-03-14T15:06:08;11.90;;;6.35;;
64498;SDS011;51087;55.718;21.122;2023-03-14T15:08:36;12.07;;;6.50;;
64498;SDS011;51087;55.718;21.122;2023-03-14T15:11:02;11.10;;;5.93;;
64498;SDS011;51087;55.718;21.122;2023-03-14T15:13:27;12.35;;;6.90;;
64498;SDS011;51087;55.718;21.122;2023-03-14T15:15:53;11.65;;;6.95;;
64498;SDS011;51087;55.718;21.122;2023-03-14T15:18:21;11.77;;;6.50;;
64498;SDS011;51087;55.718;21.122;2023-03-14T15:20:50;13.10;;;6.60;;
64498;SDS011;51087;55.718;21.122;2023-03-14T15:23:17;16.52;;;6.60;;
64498;SDS011;51087;55.718;21.122;2023-03-14T15:25:43;14.52;;;6.57;;
64498;SDS011;51087;55.718;21.122;2023-03-14T15:28:18;21.55;;;9.68;;
64498;SDS011;51087;55.718;21.122;2023-03-14T15:30:48;18.83;;;9.27;;
64498;SDS011;51087;55.718;21.122;2023-03-14T15:33:15;14.25;;;7.65;;
64498;SDS011;51087;55.718;21.122;2023-03-14T15:35:41;10.38;;;6.07;;
64498;SDS011;51087;55.718;21.122;2023-03-14T15:38:09;12.48;;;6.40;;
64498;SDS011;51087;55.718;21.122;2023-03-14T15:40:36;16.55;;;7.82;;
64498;SDS011;51087;55.718;21.122;2023-03-14T15:43:02;13.13;;;6.82;;
64498;SDS011;51087;55.718;21.122;2023-03-14T15:45:27;13.80;;;6.53;;
64498;SDS011;51087;55.718;21.122;2023-03-14T15:47:53;13.27;;;6.80;;
64498;SDS011;51087;55.718;21.122;2023-03-14T15:50:18;11.88;;;6.75;;
64498;SDS011;51087;55.718;21.122;2023-03-14T15:52:44;15.43;;;7.45;;
64498;SDS011;51087;55.718;21.122;2023-03-14T15:55:10;14.95;;;6.90;;
64498;SDS011;51087;55.718;21.122;2023-03-14T15:57:36;13.85;;;7.57;;
64498;SDS011;51087;55.718;21.122;2023-03-14T16:00:01;12.32;;;6.32;;
64498;SDS011;51087;55.718;21.122;2023-03-14T16:02:29;17.50;;;7.35;;
64498;SDS011;51087;55.718;21.122;2023-03-14T16:04:55;16.00;;;7.30;;